Aeroporto :
LOGIN :

Iscrizione | Disclaimer

   EN    FR    IT 

 










Sommario :    VFR   VFR Marginale   IFR   IFR Intensivo   IFR Molto Intensivo
Visibilità : 
Base nubi : 
>= 8 km
>= 3000ft
5 / 8 km
1000 / 3000 ft
1500m / 5 km
500 / 1000 ft
800 / 1500m
200 / 500 ft
< 800m
< 200 ft
Simboli :   Temporali  Nebbia  Neve Forte  Precipitazioni Forti  Vento > 20 kt
SIGMETs :   Varie  Temporali  Ghiacco  Turbolenza  Onda orograficha  Ceneri Vulcaniche






- Altitudine del aeroporto : 26 ft
- Codice IATA : SYY


EGPO - Stornoway

ULTIMO METAR :
  • 290850Z AUTO 28007KT 9999 NCD 06/M01 Q1049

METARs OBSOLETI :
  • 290820Z AUTO 28005KT 250V340 9999 SCT042/// OVC049/// 05/M01 Q1050
  • 290750Z AUTO 26004KT 9999 OVC045/// 04/M01 Q1050
  • 290720Z AUTO 29005KT 9999 NCD 03/M01 Q1050
  • 290650Z AUTO 31005KT 9999 NCD 02/M02 Q1049
  • 290620Z AUTO 26004KT 9999 NCD 02/M02 Q1049

TAF TAF EGPO
Valido dal 29 a 09 ore il 29 a 18 ore UTC


290757Z 2909/2918 29009KT 9999 BKN045
PROB30
TEMPO 2912/2918 31015G25KT
ATIS : +44 1851 707 444



MetMap, La meteo Aeronautica in un colpo d'occhio ! - Copyright ORBIFLY Dicembre 2007 - Disclaimer

ORBIFLY MET'MAP TEAM :

Programmazione e sviluppo : Alexandra Zaïnal
Concezione : Baudouin d'Aumeries
Aiuto per la programmazione : Marc-Olivier Méhu
Supporto tecnico e logistico : Manuel Goepfert
Aiuto per la traduzione : Arnaldo La Scala

Contatto : metmap@orbifly.com




FONTI E CREDITI :

   NOAA